sensor_id;sensor_type;location;lat;lon;timestamp;P1;P2;P0
78408;PMS5003;67697;50.750;-3.270;2024-01-30T00:01:57;1;1;
78408;PMS5003;67697;50.750;-3.270;2024-01-30T00:04:22;2;2;
78408;PMS5003;67697;50.750;-3.270;2024-01-30T00:06:48;3;3;
78408;PMS5003;67697;50.750;-3.270;2024-01-30T00:09:14;2;2;
78408;PMS5003;67697;50.750;-3.270;2024-01-30T00:11:39;1;1;
78408;PMS5003;67697;50.750;-3.270;2024-01-30T00:14:05;1;1;
78408;PMS5003;67697;50.750;-3.270;2024-01-30T00:16:31;1;1;
78408;PMS5003;67697;50.750;-3.270;2024-01-30T00:18:56;2;1;
78408;PMS5003;67697;50.750;-3.270;2024-01-30T00:21:22;1;1;
78408;PMS5003;67697;50.750;-3.270;2024-01-30T00:23:48;1;1;
78408;PMS5003;67697;50.750;-3.270;2024-01-30T00:26:13;1;1;
78408;PMS5003;67697;50.750;-3.270;2024-01-30T00:28:39;0;0;
78408;PMS5003;67697;50.750;-3.270;2024-01-30T00:31:05;2;1;
78408;PMS5003;67697;50.750;-3.270;2024-01-30T00:33:30;0;0;
78408;PMS5003;67697;50.750;-3.270;2024-01-30T00:35:56;0;0;
78408;PMS5003;67697;50.750;-3.270;2024-01-30T00:38:23;1;1;
78408;PMS5003;67697;50.750;-3.270;2024-01-30T00:40:47;2;1;
78408;PMS5003;67697;50.750;-3.270;2024-01-30T00:43:13;0;0;
78408;PMS5003;67697;50.750;-3.270;2024-01-30T00:45:39;2;1;
78408;PMS5003;67697;50.750;-3.270;2024-01-30T00:48:05;0;0;
78408;PMS5003;67697;50.750;-3.270;2024-01-30T00:50:30;1;1;
78408;PMS5003;67697;50.750;-3.270;2024-01-30T00:52:56;2;2;
78408;PMS5003;67697;50.750;-3.270;2024-01-30T00:55:22;1;1;
78408;PMS5003;67697;50.750;-3.270;2024-01-30T00:57:47;0;0;
78408;PMS5003;67697;50.750;-3.270;2024-01-30T01:00:13;1;1;
78408;PMS5003;67697;50.750;-3.270;2024-01-30T01:02:39;2;1;
78408;PMS5003;67697;50.750;-3.270;2024-01-30T01:05:05;0;0;
78408;PMS5003;67697;50.750;-3.270;2024-01-30T01:07:30;1;1;
78408;PMS5003;67697;50.750;-3.270;2024-01-30T01:09:56;1;1;
78408;PMS5003;67697;50.750;-3.270;2024-01-30T01:12:21;2;2;
78408;PMS5003;67697;50.750;-3.270;2024-01-30T01:14:47;8;4;
78408;PMS5003;67697;50.750;-3.270;2024-01-30T01:17:13;1;1;
78408;PMS5003;67697;50.750;-3.270;2024-01-30T01:19:38;2;2;
78408;PMS5003;67697;50.750;-3.270;2024-01-30T01:22:04;1;1;
78408;PMS5003;67697;50.750;-3.270;2024-01-30T01:24:30;0;0;
78408;PMS5003;67697;50.750;-3.270;2024-01-30T01:26:55;1;1;
78408;PMS5003;67697;50.750;-3.270;2024-01-30T01:29:21;3;1;
78408;PMS5003;67697;50.750;-3.270;2024-01-30T01:31:47;0;0;
78408;PMS5003;67697;50.750;-3.270;2024-01-30T01:34:13;0;0;
78408;PMS5003;67697;50.750;-3.270;2024-01-30T01:36:38;2;0;
78408;PMS5003;67697;50.750;-3.270;2024-01-30T01:39:04;1;0;
78408;PMS5003;67697;50.750;-3.270;2024-01-30T01:41:30;1;1;
78408;PMS5003;67697;50.750;-3.270;2024-01-30T01:43:55;0;0;
78408;PMS5003;67697;50.750;-3.270;2024-01-30T01:46:21;1;1;
78408;PMS5003;67697;50.750;-3.270;2024-01-30T01:48:47;2;1;
78408;PMS5003;67697;50.750;-3.270;2024-01-30T01:51:12;0;0;
78408;PMS5003;67697;50.750;-3.270;2024-01-30T01:53:38;0;0;
78408;PMS5003;67697;50.750;-3.270;2024-01-30T01:56:04;1;1;
78408;PMS5003;67697;50.750;-3.270;2024-01-30T01:58:30;0;0;
78408;PMS5003;67697;50.750;-3.270;2024-01-30T02:00:56;0;0;
78408;PMS5003;67697;50.750;-3.270;2024-01-30T02:03:21;0;0;
78408;PMS5003;67697;50.750;-3.270;2024-01-30T02:05:47;3;0;
78408;PMS5003;67697;50.750;-3.270;2024-01-30T02:08:12;0;0;
78408;PMS5003;67697;50.750;-3.270;2024-01-30T02:10:38;1;1;
78408;PMS5003;67697;50.750;-3.270;2024-01-30T02:13:04;0;0;
78408;PMS5003;67697;50.750;-3.270;2024-01-30T02:15:30;1;1;
78408;PMS5003;67697;50.750;-3.270;2024-01-30T02:17:55;1;1;
78408;PMS5003;67697;50.750;-3.270;2024-01-30T02:20:21;2;1;
78408;PMS5003;67697;50.750;-3.270;2024-01-30T02:22:46;2;1;
78408;PMS5003;67697;50.750;-3.270;2024-01-30T02:25:12;1;1;
78408;PMS5003;67697;50.750;-3.270;2024-01-30T02:27:38;1;1;
78408;PMS5003;67697;50.750;-3.270;2024-01-30T02:30:04;2;2;
78408;PMS5003;67697;50.750;-3.270;2024-01-30T02:32:29;3;1;
78408;PMS5003;67697;50.750;-3.270;2024-01-30T02:34:55;1;1;
78408;PMS5003;67697;50.750;-3.270;2024-01-30T02:37:21;1;1;
78408;PMS5003;67697;50.750;-3.270;2024-01-30T02:39:46;3;2;
78408;PMS5003;67697;50.750;-3.270;2024-01-30T02:42:12;3;2;
78408;PMS5003;67697;50.750;-3.270;2024-01-30T02:44:38;0;0;
78408;PMS5003;67697;50.750;-3.270;2024-01-30T02:47:04;1;1;
78408;PMS5003;67697;50.750;-3.270;2024-01-30T02:49:29;4;2;
78408;PMS5003;67697;50.750;-3.270;2024-01-30T02:51:55;2;2;
78408;PMS5003;67697;50.750;-3.270;2024-01-30T02:54:21;3;2;
78408;PMS5003;67697;50.750;-3.270;2024-01-30T02:56:46;1;1;
78408;PMS5003;67697;50.750;-3.270;2024-01-30T02:59:12;2;2;
78408;PMS5003;67697;50.750;-3.270;2024-01-30T03:01:43;2;2;
78408;PMS5003;67697;50.750;-3.270;2024-01-30T03:04:04;2;2;
78408;PMS5003;67697;50.750;-3.270;2024-01-30T03:06:29;4;2;
78408;PMS5003;67697;50.750;-3.270;2024-01-30T03:08:55;2;2;
78408;PMS5003;67697;50.750;-3.270;2024-01-30T03:11:21;4;2;
78408;PMS5003;67697;50.750;-3.270;2024-01-30T03:13:46;4;2;
78408;PMS5003;67697;50.750;-3.270;2024-01-30T03:16:12;2;2;
78408;PMS5003;67697;50.750;-3.270;2024-01-30T03:18:38;3;3;
78408;PMS5003;67697;50.750;-3.270;2024-01-30T03:21:04;2;2;
78408;PMS5003;67697;50.750;-3.270;2024-01-30T03:23:29;3;3;
78408;PMS5003;67697;50.750;-3.270;2024-01-30T03:25:55;3;3;
78408;PMS5003;67697;50.750;-3.270;2024-01-30T03:28:21;2;2;
78408;PMS5003;67697;50.750;-3.270;2024-01-30T03:30:46;3;3;
78408;PMS5003;67697;50.750;-3.270;2024-01-30T03:33:12;4;4;
78408;PMS5003;67697;50.750;-3.270;2024-01-30T03:35:38;3;3;
78408;PMS5003;67697;50.750;-3.270;2024-01-30T03:38:04;6;3;
78408;PMS5003;67697;50.750;-3.270;2024-01-30T03:40:29;9;8;
78408;PMS5003;67697;50.750;-3.270;2024-01-30T03:42:55;8;6;
78408;PMS5003;67697;50.750;-3.270;2024-01-30T03:45:21;8;7;
78408;PMS5003;67697;50.750;-3.270;2024-01-30T03:47:46;8;8;
78408;PMS5003;67697;50.750;-3.270;2024-01-30T03:50:12;13;9;
78408;PMS5003;67697;50.750;-3.270;2024-01-30T03:52:38;9;9;
78408;PMS5003;67697;50.750;-3.270;2024-01-30T03:55:03;7;7;
78408;PMS5003;67697;50.750;-3.270;2024-01-30T03:57:29;11;9;
78408;PMS5003;67697;50.750;-3.270;2024-01-30T03:59:54;11;8;
78408;PMS5003;67697;50.750;-3.270;2024-01-30T04:02:20;8;8;
78408;PMS5003;67697;50.750;-3.270;2024-01-30T04:04:46;13;8;
78408;PMS5003;67697;50.750;-3.270;2024-01-30T04:07:11;12;9;
78408;PMS5003;67697;50.750;-3.270;2024-01-30T04:09:38;14;12;
78408;PMS5003;67697;50.750;-3.270;2024-01-30T04:12:03;12;8;
78408;PMS5003;67697;50.750;-3.270;2024-01-30T04:14:28;8;8;
78408;PMS5003;67697;50.750;-3.270;2024-01-30T04:16:54;12;11;
78408;PMS5003;67697;50.750;-3.270;2024-01-30T04:19:19;9;8;
78408;PMS5003;67697;50.750;-3.270;2024-01-30T04:21:45;13;12;
78408;PMS5003;67697;50.750;-3.270;2024-01-30T04:24:11;9;8;
78408;PMS5003;67697;50.750;-3.270;2024-01-30T04:26:37;9;9;
78408;PMS5003;67697;50.750;-3.270;2024-01-30T04:29:02;13;8;
78408;PMS5003;67697;50.750;-3.270;2024-01-30T04:31:28;14;11;
78408;PMS5003;67697;50.750;-3.270;2024-01-30T04:33:53;17;12;
78408;PMS5003;67697;50.750;-3.270;2024-01-30T04:36:19;13;11;
78408;PMS5003;67697;50.750;-3.270;2024-01-30T04:38:45;11;11;
78408;PMS5003;67697;50.750;-3.270;2024-01-30T04:41:11;12;12;
78408;PMS5003;67697;50.750;-3.270;2024-01-30T04:43:36;12;9;
78408;PMS5003;67697;50.750;-3.270;2024-01-30T04:46:02;14;9;
78408;PMS5003;67697;50.750;-3.270;2024-01-30T04:48:27;9;9;
78408;PMS5003;67697;50.750;-3.270;2024-01-30T04:50:53;11;6;
78408;PMS5003;67697;50.750;-3.270;2024-01-30T04:53:18;9;9;
78408;PMS5003;67697;50.750;-3.270;2024-01-30T04:55:44;8;8;
78408;PMS5003;67697;50.750;-3.270;2024-01-30T04:58:09;12;9;
78408;PMS5003;67697;50.750;-3.270;2024-01-30T05:00:35;12;11;
78408;PMS5003;67697;50.750;-3.270;2024-01-30T05:03:01;16;11;
78408;PMS5003;67697;50.750;-3.270;2024-01-30T05:05:27;11;8;
78408;PMS5003;67697;50.750;-3.270;2024-01-30T05:07:52;11;9;
78408;PMS5003;67697;50.750;-3.270;2024-01-30T05:10:18;7;7;
78408;PMS5003;67697;50.750;-3.270;2024-01-30T05:12:43;8;8;
78408;PMS5003;67697;50.750;-3.270;2024-01-30T05:15:09;12;8;
78408;PMS5003;67697;50.750;-3.270;2024-01-30T05:17:35;11;11;
78408;PMS5003;67697;50.750;-3.270;2024-01-30T05:20:01;13;11;
78408;PMS5003;67697;50.750;-3.270;2024-01-30T05:22:26;12;11;
78408;PMS5003;67697;50.750;-3.270;2024-01-30T05:24:52;8;8;
78408;PMS5003;67697;50.750;-3.270;2024-01-30T05:27:18;11;8;
78408;PMS5003;67697;50.750;-3.270;2024-01-30T05:29:44;7;6;
78408;PMS5003;67697;50.750;-3.270;2024-01-30T05:32:09;14;11;
78408;PMS5003;67697;50.750;-3.270;2024-01-30T05:34:35;13;11;
78408;PMS5003;67697;50.750;-3.270;2024-01-30T05:37:01;12;7;
78408;PMS5003;67697;50.750;-3.270;2024-01-30T05:39:26;8;7;
78408;PMS5003;67697;50.750;-3.270;2024-01-30T05:41:52;8;8;
78408;PMS5003;67697;50.750;-3.270;2024-01-30T05:44:18;9;9;
78408;PMS5003;67697;50.750;-3.270;2024-01-30T05:46:44;13;9;
78408;PMS5003;67697;50.750;-3.270;2024-01-30T05:49:09;9;8;
78408;PMS5003;67697;50.750;-3.270;2024-01-30T05:51:35;14;9;
78408;PMS5003;67697;50.750;-3.270;2024-01-30T05:54:00;9;9;
78408;PMS5003;67697;50.750;-3.270;2024-01-30T05:56:26;11;9;
78408;PMS5003;67697;50.750;-3.270;2024-01-30T05:58:52;7;7;
78408;PMS5003;67697;50.750;-3.270;2024-01-30T06:01:18;9;9;
78408;PMS5003;67697;50.750;-3.270;2024-01-30T06:03:43;14;8;
78408;PMS5003;67697;50.750;-3.270;2024-01-30T06:06:09;11;8;
78408;PMS5003;67697;50.750;-3.270;2024-01-30T06:08:34;12;9;
78408;PMS5003;67697;50.750;-3.270;2024-01-30T06:11:00;12;9;
78408;PMS5003;67697;50.750;-3.270;2024-01-30T06:13:26;9;9;
78408;PMS5003;67697;50.750;-3.270;2024-01-30T06:15:52;13;12;
78408;PMS5003;67697;50.750;-3.270;2024-01-30T06:18:17;11;9;
78408;PMS5003;67697;50.750;-3.270;2024-01-30T06:20:43;18;13;
78408;PMS5003;67697;50.750;-3.270;2024-01-30T06:23:08;13;11;
78408;PMS5003;67697;50.750;-3.270;2024-01-30T06:25:34;11;11;
78408;PMS5003;67697;50.750;-3.270;2024-01-30T06:28:00;16;13;
78408;PMS5003;67697;50.750;-3.270;2024-01-30T06:30:25;11;8;
78408;PMS5003;67697;50.750;-3.270;2024-01-30T06:32:51;12;12;
78408;PMS5003;67697;50.750;-3.270;2024-01-30T06:35:16;9;7;
78408;PMS5003;67697;50.750;-3.270;2024-01-30T06:37:42;9;9;
78408;PMS5003;67697;50.750;-3.270;2024-01-30T06:40:08;12;9;
78408;PMS5003;67697;50.750;-3.270;2024-01-30T06:42:33;13;11;
78408;PMS5003;67697;50.750;-3.270;2024-01-30T06:44:58;7;7;
78408;PMS5003;67697;50.750;-3.270;2024-01-30T06:47:23;17;14;
78408;PMS5003;67697;50.750;-3.270;2024-01-30T06:49:49;11;7;
78408;PMS5003;67697;50.750;-3.270;2024-01-30T06:52:14;8;8;
78408;PMS5003;67697;50.750;-3.270;2024-01-30T06:54:40;11;8;
78408;PMS5003;67697;50.750;-3.270;2024-01-30T06:57:05;9;7;
78408;PMS5003;67697;50.750;-3.270;2024-01-30T06:59:31;12;8;
78408;PMS5003;67697;50.750;-3.270;2024-01-30T07:01:57;13;9;
78408;PMS5003;67697;50.750;-3.270;2024-01-30T07:04:22;9;7;
78408;PMS5003;67697;50.750;-3.270;2024-01-30T07:06:48;12;9;
78408;PMS5003;67697;50.750;-3.270;2024-01-30T07:09:13;12;9;
78408;PMS5003;67697;50.750;-3.270;2024-01-30T07:11:39;13;8;
78408;PMS5003;67697;50.750;-3.270;2024-01-30T07:14:04;9;8;
78408;PMS5003;67697;50.750;-3.270;2024-01-30T07:16:30;8;6;
78408;PMS5003;67697;50.750;-3.270;2024-01-30T07:18:55;8;8;
78408;PMS5003;67697;50.750;-3.270;2024-01-30T07:21:21;4;4;
78408;PMS5003;67697;50.750;-3.270;2024-01-30T07:23:47;4;4;
78408;PMS5003;67697;50.750;-3.270;2024-01-30T07:26:13;8;6;
78408;PMS5003;67697;50.750;-3.270;2024-01-30T07:28:38;4;4;
78408;PMS5003;67697;50.750;-3.270;2024-01-30T07:31:04;7;6;
78408;PMS5003;67697;50.750;-3.270;2024-01-30T07:33:29;4;4;
78408;PMS5003;67697;50.750;-3.270;2024-01-30T07:35:55;6;4;
78408;PMS5003;67697;50.750;-3.270;2024-01-30T07:38:22;6;6;
78408;PMS5003;67697;50.750;-3.270;2024-01-30T07:40:47;8;7;
78408;PMS5003;67697;50.750;-3.270;2024-01-30T07:43:12;6;3;
78408;PMS5003;67697;50.750;-3.270;2024-01-30T07:45:38;3;3;
78408;PMS5003;67697;50.750;-3.270;2024-01-30T07:48:05;6;4;
78408;PMS5003;67697;50.750;-3.270;2024-01-30T07:50:30;7;3;
78408;PMS5003;67697;50.750;-3.270;2024-01-30T07:52:55;11;7;
78408;PMS5003;67697;50.750;-3.270;2024-01-30T07:55:21;6;5;
78408;PMS5003;67697;50.750;-3.270;2024-01-30T07:57:47;4;4;
78408;PMS5003;67697;50.750;-3.270;2024-01-30T08:00:13;4;4;
78408;PMS5003;67697;50.750;-3.270;2024-01-30T08:02:38;7;6;
78408;PMS5003;67697;50.750;-3.270;2024-01-30T08:05:04;7;3;
78408;PMS5003;67697;50.750;-3.270;2024-01-30T08:07:30;6;3;
78408;PMS5003;67697;50.750;-3.270;2024-01-30T08:09:56;6;6;
78408;PMS5003;67697;50.750;-3.270;2024-01-30T08:12:21;6;6;
78408;PMS5003;67697;50.750;-3.270;2024-01-30T08:14:47;5;3;
78408;PMS5003;67697;50.750;-3.270;2024-01-30T08:17:13;6;5;
78408;PMS5003;67697;50.750;-3.270;2024-01-30T08:19:38;3;3;
78408;PMS5003;67697;50.750;-3.270;2024-01-30T08:22:04;6;6;
78408;PMS5003;67697;50.750;-3.270;2024-01-30T08:24:30;8;6;
78408;PMS5003;67697;50.750;-3.270;2024-01-30T08:26:55;6;5;
78408;PMS5003;67697;50.750;-3.270;2024-01-30T08:29:21;3;3;
78408;PMS5003;67697;50.750;-3.270;2024-01-30T08:31:47;8;6;
78408;PMS5003;67697;50.750;-3.270;2024-01-30T08:34:13;5;5;
78408;PMS5003;67697;50.750;-3.270;2024-01-30T08:36:38;6;3;
78408;PMS5003;67697;50.750;-3.270;2024-01-30T08:39:04;12;6;
78408;PMS5003;67697;50.750;-3.270;2024-01-30T08:41:30;6;3;
78408;PMS5003;67697;50.750;-3.270;2024-01-30T08:43:56;7;4;
78408;PMS5003;67697;50.750;-3.270;2024-01-30T08:46:21;11;9;
78408;PMS5003;67697;50.750;-3.270;2024-01-30T08:48:46;7;4;
78408;PMS5003;67697;50.750;-3.270;2024-01-30T08:51:12;8;7;
78408;PMS5003;67697;50.750;-3.270;2024-01-30T08:53:38;6;6;
78408;PMS5003;67697;50.750;-3.270;2024-01-30T08:56:05;3;3;
78408;PMS5003;67697;50.750;-3.270;2024-01-30T08:58:29;9;6;
78408;PMS5003;67697;50.750;-3.270;2024-01-30T09:00:55;6;6;
78408;PMS5003;67697;50.750;-3.270;2024-01-30T09:03:20;6;4;
78408;PMS5003;67697;50.750;-3.270;2024-01-30T09:05:46;4;4;
78408;PMS5003;67697;50.750;-3.270;2024-01-30T09:08:12;7;6;
78408;PMS5003;67697;50.750;-3.270;2024-01-30T09:10:39;3;3;
78408;PMS5003;67697;50.750;-3.270;2024-01-30T09:13:03;4;4;
78408;PMS5003;67697;50.750;-3.270;2024-01-30T09:15:29;3;3;
78408;PMS5003;67697;50.750;-3.270;2024-01-30T09:17:55;5;5;
78408;PMS5003;67697;50.750;-3.270;2024-01-30T09:20:21;6;4;
78408;PMS5003;67697;50.750;-3.270;2024-01-30T09:22:46;7;4;
78408;PMS5003;67697;50.750;-3.270;2024-01-30T09:25:12;9;7;
78408;PMS5003;67697;50.750;-3.270;2024-01-30T09:27:39;6;3;
78408;PMS5003;67697;50.750;-3.270;2024-01-30T09:30:04;2;2;
78408;PMS5003;67697;50.750;-3.270;2024-01-30T09:32:29;9;6;
78408;PMS5003;67697;50.750;-3.270;2024-01-30T09:34:55;6;3;
78408;PMS5003;67697;50.750;-3.270;2024-01-30T09:37:20;4;4;
78408;PMS5003;67697;50.750;-3.270;2024-01-30T09:39:46;9;6;
78408;PMS5003;67697;50.750;-3.270;2024-01-30T09:42:15;4;4;
78408;PMS5003;67697;50.750;-3.270;2024-01-30T09:44:38;4;3;
78408;PMS5003;67697;50.750;-3.270;2024-01-30T09:47:03;7;4;
78408;PMS5003;67697;50.750;-3.270;2024-01-30T09:49:29;8;7;
78408;PMS5003;67697;50.750;-3.270;2024-01-30T09:51:55;6;6;
78408;PMS5003;67697;50.750;-3.270;2024-01-30T09:54:20;4;3;
78408;PMS5003;67697;50.750;-3.270;2024-01-30T09:56:47;7;6;
78408;PMS5003;67697;50.750;-3.270;2024-01-30T09:59:12;3;3;
78408;PMS5003;67697;50.750;-3.270;2024-01-30T10:01:38;4;3;
78408;PMS5003;67697;50.750;-3.270;2024-01-30T10:04:03;3;2;
78408;PMS5003;67697;50.750;-3.270;2024-01-30T10:06:29;4;3;
78408;PMS5003;67697;50.750;-3.270;2024-01-30T10:08:54;3;3;
78408;PMS5003;67697;50.750;-3.270;2024-01-30T10:11:20;9;6;
78408;PMS5003;67697;50.750;-3.270;2024-01-30T10:13:46;6;6;
78408;PMS5003;67697;50.750;-3.270;2024-01-30T10:16:13;3;3;
78408;PMS5003;67697;50.750;-3.270;2024-01-30T10:18:38;7;4;
78408;PMS5003;67697;50.750;-3.270;2024-01-30T10:21:03;8;6;
78408;PMS5003;67697;50.750;-3.270;2024-01-30T10:23:29;6;3;
78408;PMS5003;67697;50.750;-3.270;2024-01-30T10:25:55;3;3;
78408;PMS5003;67697;50.750;-3.270;2024-01-30T10:28:20;9;6;
78408;PMS5003;67697;50.750;-3.270;2024-01-30T10:30:46;3;2;
78408;PMS5003;67697;50.750;-3.270;2024-01-30T10:33:12;6;6;
78408;PMS5003;67697;50.750;-3.270;2024-01-30T10:35:38;3;3;
78408;PMS5003;67697;50.750;-3.270;2024-01-30T10:38:03;2;2;
78408;PMS5003;67697;50.750;-3.270;2024-01-30T10:40:29;2;2;
78408;PMS5003;67697;50.750;-3.270;2024-01-30T10:42:55;4;4;
78408;PMS5003;67697;50.750;-3.270;2024-01-30T10:45:20;4;3;
78408;PMS5003;67697;50.750;-3.270;2024-01-30T10:47:48;7;3;
78408;PMS5003;67697;50.750;-3.270;2024-01-30T10:50:11;4;3;
78408;PMS5003;67697;50.750;-3.270;2024-01-30T10:52:37;8;3;
78408;PMS5003;67697;50.750;-3.270;2024-01-30T10:55:04;7;4;
78408;PMS5003;67697;50.750;-3.270;2024-01-30T10:57:29;3;2;
78408;PMS5003;67697;50.750;-3.270;2024-01-30T10:59:55;6;4;
78408;PMS5003;67697;50.750;-3.270;2024-01-30T11:02:20;6;2;
78408;PMS5003;67697;50.750;-3.270;2024-01-30T11:04:45;6;3;
78408;PMS5003;67697;50.750;-3.270;2024-01-30T11:07:15;4;4;
78408;PMS5003;67697;50.750;-3.270;2024-01-30T11:09:37;3;3;
78408;PMS5003;67697;50.750;-3.270;2024-01-30T11:12:03;3;3;
78408;PMS5003;67697;50.750;-3.270;2024-01-30T11:14:29;3;3;
78408;PMS5003;67697;50.750;-3.270;2024-01-30T11:16:56;4;2;
78408;PMS5003;67697;50.750;-3.270;2024-01-30T11:19:22;3;3;
78408;PMS5003;67697;50.750;-3.270;2024-01-30T11:21:45;6;4;
78408;PMS5003;67697;50.750;-3.270;2024-01-30T11:24:10;9;3;
78408;PMS5003;67697;50.750;-3.270;2024-01-30T11:26:36;3;3;
78408;PMS5003;67697;50.750;-3.270;2024-01-30T11:29:03;3;3;
78408;PMS5003;67697;50.750;-3.270;2024-01-30T11:31:27;7;6;
78408;PMS5003;67697;50.750;-3.270;2024-01-30T11:33:53;7;4;
78408;PMS5003;67697;50.750;-3.270;2024-01-30T11:36:19;8;3;
78408;PMS5003;67697;50.750;-3.270;2024-01-30T11:38:44;6;4;
78408;PMS5003;67697;50.750;-3.270;2024-01-30T11:41:10;2;2;
78408;PMS5003;67697;50.750;-3.270;2024-01-30T11:43:36;6;4;
78408;PMS5003;67697;50.750;-3.270;2024-01-30T11:46:02;7;6;
78408;PMS5003;67697;50.750;-3.270;2024-01-30T11:48:27;4;2;
78408;PMS5003;67697;50.750;-3.270;2024-01-30T11:50:54;4;2;
78408;PMS5003;67697;50.750;-3.270;2024-01-30T11:53:19;4;3;
78408;PMS5003;67697;50.750;-3.270;2024-01-30T11:55:49;3;3;
78408;PMS5003;67697;50.750;-3.270;2024-01-30T11:58:10;3;2;
78408;PMS5003;67697;50.750;-3.270;2024-01-30T12:00:36;4;3;
78408;PMS5003;67697;50.750;-3.270;2024-01-30T12:03:01;4;2;
78408;PMS5003;67697;50.750;-3.270;2024-01-30T12:05:27;4;4;
78408;PMS5003;67697;50.750;-3.270;2024-01-30T12:07:53;4;3;
78408;PMS5003;67697;50.750;-3.270;2024-01-30T12:10:18;2;2;
78408;PMS5003;67697;50.750;-3.270;2024-01-30T12:12:45;3;2;
78408;PMS5003;67697;50.750;-3.270;2024-01-30T12:15:10;3;2;
78408;PMS5003;67697;50.750;-3.270;2024-01-30T12:17:36;2;2;
78408;PMS5003;67697;50.750;-3.270;2024-01-30T12:20:03;6;3;
78408;PMS5003;67697;50.750;-3.270;2024-01-30T12:22:27;1;1;
78408;PMS5003;67697;50.750;-3.270;2024-01-30T12:24:53;2;2;
78408;PMS5003;67697;50.750;-3.270;2024-01-30T12:27:18;3;3;
78408;PMS5003;67697;50.750;-3.270;2024-01-30T12:29:44;3;1;
78408;PMS5003;67697;50.750;-3.270;2024-01-30T12:32:14;1;1;
78408;PMS5003;67697;50.750;-3.270;2024-01-30T12:34:40;1;1;
78408;PMS5003;67697;50.750;-3.270;2024-01-30T12:37:01;1;1;
78408;PMS5003;67697;50.750;-3.270;2024-01-30T12:39:27;3;2;
78408;PMS5003;67697;50.750;-3.270;2024-01-30T12:41:52;2;2;
78408;PMS5003;67697;50.750;-3.270;2024-01-30T12:44:18;1;1;
78408;PMS5003;67697;50.750;-3.270;2024-01-30T12:46:44;3;1;
78408;PMS5003;67697;50.750;-3.270;2024-01-30T12:49:09;1;0;
78408;PMS5003;67697;50.750;-3.270;2024-01-30T12:51:35;1;1;
78408;PMS5003;67697;50.750;-3.270;2024-01-30T12:54:04;4;2;
78408;PMS5003;67697;50.750;-3.270;2024-01-30T12:56:26;2;2;
78408;PMS5003;67697;50.750;-3.270;2024-01-30T12:58:52;0;0;
78408;PMS5003;67697;50.750;-3.270;2024-01-30T13:01:18;0;0;
78408;PMS5003;67697;50.750;-3.270;2024-01-30T13:03:43;0;0;
78408;PMS5003;67697;50.750;-3.270;2024-01-30T13:06:09;2;2;
78408;PMS5003;67697;50.750;-3.270;2024-01-30T13:08:35;0;0;
78408;PMS5003;67697;50.750;-3.270;2024-01-30T13:11:00;1;1;
78408;PMS5003;67697;50.750;-3.270;2024-01-30T13:13:26;3;1;
78408;PMS5003;67697;50.750;-3.270;2024-01-30T13:15:52;2;1;
78408;PMS5003;67697;50.750;-3.270;2024-01-30T13:18:18;1;1;
78408;PMS5003;67697;50.750;-3.270;2024-01-30T13:20:43;1;0;
78408;PMS5003;67697;50.750;-3.270;2024-01-30T13:23:09;2;2;
78408;PMS5003;67697;50.750;-3.270;2024-01-30T13:25:35;2;1;
78408;PMS5003;67697;50.750;-3.270;2024-01-30T13:28:00;3;2;
78408;PMS5003;67697;50.750;-3.270;2024-01-30T13:30:26;2;2;
78408;PMS5003;67697;50.750;-3.270;2024-01-30T13:32:52;2;2;
78408;PMS5003;67697;50.750;-3.270;2024-01-30T13:35:17;2;2;
78408;PMS5003;67697;50.750;-3.270;2024-01-30T13:37:43;3;3;
78408;PMS5003;67697;50.750;-3.270;2024-01-30T13:40:09;4;2;
78408;PMS5003;67697;50.750;-3.270;2024-01-30T13:42:35;1;1;
78408;PMS5003;67697;50.750;-3.270;2024-01-30T13:45:00;2;1;
78408;PMS5003;67697;50.750;-3.270;2024-01-30T13:47:26;0;0;
78408;PMS5003;67697;50.750;-3.270;2024-01-30T13:49:52;1;1;
78408;PMS5003;67697;50.750;-3.270;2024-01-30T13:52:17;1;1;
78408;PMS5003;67697;50.750;-3.270;2024-01-30T13:54:43;1;1;
78408;PMS5003;67697;50.750;-3.270;2024-01-30T13:57:09;3;2;
78408;PMS5003;67697;50.750;-3.270;2024-01-30T13:59:34;1;1;
78408;PMS5003;67697;50.750;-3.270;2024-01-30T14:02:00;0;0;
78408;PMS5003;67697;50.750;-3.270;2024-01-30T14:04:26;1;1;
78408;PMS5003;67697;50.750;-3.270;2024-01-30T14:06:51;4;1;
78408;PMS5003;67697;50.750;-3.270;2024-01-30T14:09:17;1;1;
78408;PMS5003;67697;50.750;-3.270;2024-01-30T14:11:43;1;1;
78408;PMS5003;67697;50.750;-3.270;2024-01-30T14:14:09;1;1;
78408;PMS5003;67697;50.750;-3.270;2024-01-30T14:16:34;4;2;
78408;PMS5003;67697;50.750;-3.270;2024-01-30T14:19:00;2;2;
78408;PMS5003;67697;50.750;-3.270;2024-01-30T14:21:25;1;1;
78408;PMS5003;67697;50.750;-3.270;2024-01-30T14:23:51;3;3;
78408;PMS5003;67697;50.750;-3.270;2024-01-30T14:26:17;2;1;
78408;PMS5003;67697;50.750;-3.270;2024-01-30T14:28:42;0;0;
78408;PMS5003;67697;50.750;-3.270;2024-01-30T14:31:08;3;2;
78408;PMS5003;67697;50.750;-3.270;2024-01-30T14:33:34;1;1;
78408;PMS5003;67697;50.750;-3.270;2024-01-30T14:35:59;3;3;
78408;PMS5003;67697;50.750;-3.270;2024-01-30T14:38:25;2;2;
78408;PMS5003;67697;50.750;-3.270;2024-01-30T14:40:51;3;2;
78408;PMS5003;67697;50.750;-3.270;2024-01-30T14:43:18;2;2;
78408;PMS5003;67697;50.750;-3.270;2024-01-30T14:45:42;4;2;
78408;PMS5003;67697;50.750;-3.270;2024-01-30T14:48:08;0;0;
78408;PMS5003;67697;50.750;-3.270;2024-01-30T14:50:34;2;1;
78408;PMS5003;67697;50.750;-3.270;2024-01-30T14:52:59;1;1;
78408;PMS5003;67697;50.750;-3.270;2024-01-30T14:55:25;2;1;
78408;PMS5003;67697;50.750;-3.270;2024-01-30T14:57:51;1;1;
78408;PMS5003;67697;50.750;-3.270;2024-01-30T15:00:17;2;1;
78408;PMS5003;67697;50.750;-3.270;2024-01-30T15:02:42;1;1;
78408;PMS5003;67697;50.750;-3.270;2024-01-30T15:05:08;3;3;
78408;PMS5003;67697;50.750;-3.270;2024-01-30T15:07:34;3;3;
78408;PMS5003;67697;50.750;-3.270;2024-01-30T15:09:59;1;1;
78408;PMS5003;67697;50.750;-3.270;2024-01-30T15:12:25;2;1;
78408;PMS5003;67697;50.750;-3.270;2024-01-30T15:14:51;3;2;
78408;PMS5003;67697;50.750;-3.270;2024-01-30T15:17:16;1;1;
78408;PMS5003;67697;50.750;-3.270;2024-01-30T15:19:42;2;1;
78408;PMS5003;67697;50.750;-3.270;2024-01-30T15:22:08;3;2;
78408;PMS5003;67697;50.750;-3.270;2024-01-30T15:24:34;1;1;
78408;PMS5003;67697;50.750;-3.270;2024-01-30T15:26:59;1;1;
78408;PMS5003;67697;50.750;-3.270;2024-01-30T15:29:25;2;2;
78408;PMS5003;67697;50.750;-3.270;2024-01-30T15:31:50;2;2;
78408;PMS5003;67697;50.750;-3.270;2024-01-30T15:34:16;2;2;
78408;PMS5003;67697;50.750;-3.270;2024-01-30T15:36:42;4;4;
78408;PMS5003;67697;50.750;-3.270;2024-01-30T15:39:07;2;1;
78408;PMS5003;67697;50.750;-3.270;2024-01-30T15:41:33;3;3;
78408;PMS5003;67697;50.750;-3.270;2024-01-30T15:43:59;1;1;
78408;PMS5003;67697;50.750;-3.270;2024-01-30T15:46:24;8;3;
78408;PMS5003;67697;50.750;-3.270;2024-01-30T15:48:50;2;1;
78408;PMS5003;67697;50.750;-3.270;2024-01-30T15:51:16;0;0;
78408;PMS5003;67697;50.750;-3.270;2024-01-30T15:53:42;7;3;
78408;PMS5003;67697;50.750;-3.270;2024-01-30T15:56:07;3;1;
78408;PMS5003;67697;50.750;-3.270;2024-01-30T15:58:33;2;2;
78408;PMS5003;67697;50.750;-3.270;2024-01-30T16:00:59;6;3;
78408;PMS5003;67697;50.750;-3.270;2024-01-30T16:03:24;8;4;
78408;PMS5003;67697;50.750;-3.270;2024-01-30T16:05:50;7;7;
78408;PMS5003;67697;50.750;-3.270;2024-01-30T16:08:16;4;4;
78408;PMS5003;67697;50.750;-3.270;2024-01-30T16:10:41;6;6;
78408;PMS5003;67697;50.750;-3.270;2024-01-30T16:13:07;9;7;
78408;PMS5003;67697;50.750;-3.270;2024-01-30T16:15:33;8;8;
78408;PMS5003;67697;50.750;-3.270;2024-01-30T16:18:04;6;6;
78408;PMS5003;67697;50.750;-3.270;2024-01-30T16:20:24;7;3;